Time;durP1;ratioP1;P1;durP2;ratioP2;P2;SDS_P1;SDS_P2;PMS_P1;PMS_P2;Temp;Humidity;BMP_temperature;BMP_pressure;BME280_temperature;BME280_humidity;BME280_pressure;Samples;Min_cycle;Max_cycle;Signal;HPM_P1;HPM_P2
2023/01/11 00:00:25;;;;;;;2.65;1.25;;;;;;;-148.88;100.00;76057.53;5017794;28;20041;-78
2023/01/11 00:03:02;;;;;;;2.60;1.10;;;;;;;-148.88;100.00;76055.50;5018225;28;20025;-78
2023/01/11 00:05:28;;;;;;;5.25;1.80;;;;;;;-148.88;100.00;76043.31;5017974;28;20112;-78
2023/01/11 00:07:53;;;;;;;3.42;1.20;;;;;;;-148.88;100.00;76039.25;5019748;28;20049;-79
2023/01/11 00:10:19;;;;;;;3.08;1.40;;;;;;;-148.88;100.00;76031.13;5019494;28;20037;-79
2023/01/11 00:12:45;;;;;;;3.42;1.25;;;;;;;-148.88;100.00;76035.19;5019564;28;20030;-79
2023/01/11 00:15:11;;;;;;;2.47;1.17;;;;;;;-148.88;100.00;76029.09;5019319;28;20485;-79
2023/01/11 00:17:37;;;;;;;2.85;1.08;;;;;;;-148.88;100.00;76020.97;5035926;28;20369;-80
2023/01/11 00:20:03;;;;;;;3.13;1.13;;;;;;;-148.88;100.00;76010.81;5017746;28;20026;-79
2023/01/11 00:22:28;;;;;;;5.32;1.42;;;;;;;-148.88;100.00;76012.84;5017778;28;20121;-78
2023/01/11 00:24:53;;;;;;;3.78;1.60;;;;;;;-148.88;100.00;76006.75;5018294;28;20037;-77
2023/01/11 00:27:18;;;;;;;2.88;1.10;;;;;;;-148.88;100.00;75988.47;5018733;28;20100;-78
2023/01/11 00:29:44;;;;;;;2.30;1.10;;;;;;;-148.88;100.00;75976.28;5034038;28;20026;-78
2023/01/11 00:32:09;;;;;;;5.13;1.45;;;;;;;-148.88;100.00;75962.06;5018634;28;20022;-77
2023/01/11 00:34:35;;;;;;;3.08;1.35;;;;;;;-148.88;100.00;75960.03;5017112;28;20025;-77
2023/01/11 00:37:00;;;;;;;4.82;1.00;;;;;;;-148.88;100.00;75955.97;5019153;28;20033;-78
2023/01/11 00:39:26;;;;;;;2.40;1.30;;;;;;;-148.88;100.00;75943.78;5018982;28;20026;-78
2023/01/11 00:50:03;;;;;;;4.38;1.15;;;;;;;-148.88;100.00;75903.16;5019350;28;20091;-79
2023/01/11 00:52:29;;;;;;;2.80;1.25;;;;;;;-148.88;100.00;75899.09;5019417;28;20034;-79
2023/01/11 00:54:54;;;;;;;3.28;0.90;;;;;;;-148.88;100.00;75880.81;5018638;28;20116;-79
2023/01/11 00:57:19;;;;;;;1.55;0.80;;;;;;;-148.88;100.00;75899.09;5018167;28;20109;-79
2023/01/11 00:59:44;;;;;;;2.05;0.95;;;;;;;-148.88;100.00;75895.03;5018176;28;20091;-79
2023/01/11 01:02:10;;;;;;;4.65;1.67;;;;;;;-148.88;100.00;75888.94;5017904;28;20444;-78
2023/01/11 01:04:36;;;;;;;1.75;0.77;;;;;;;-148.88;100.00;75882.84;5017810;28;20373;-79
2023/01/11 01:07:02;;;;;;;3.72;1.08;;;;;;;-148.88;100.00;75876.75;5018333;28;20068;-79
2023/01/11 01:09:27;;;;;;;3.40;0.80;;;;;;;-148.88;100.00;75876.75;5017823;28;20026;-79
2023/01/11 01:11:53;;;;;;;1.83;0.80;;;;;;;-148.88;100.00;75870.66;5016184;28;20025;-79
2023/01/11 01:14:24;;;;;;;2.88;1.35;;;;;;;-148.88;100.00;75860.50;5017555;28;20034;-77
2023/01/11 01:16:50;;;;;;;7.65;1.52;;;;;;;-148.88;100.00;75860.50;5017557;28;20048;-79
2023/01/11 01:19:16;;;;;;;2.78;0.82;;;;;;;-148.88;100.00;75848.31;5000303;28;20029;-78
2023/01/11 01:21:41;;;;;;;4.40;1.00;;;;;;;-148.88;100.00;75846.28;5000946;28;20018;-79
2023/01/11 01:24:07;;;;;;;4.35;1.10;;;;;;;-148.88;100.00;75846.28;5045975;23;20099;-78
2023/01/11 01:26:32;;;;;;;3.55;1.27;;;;;;;-148.88;100.00;75854.41;5036819;28;20029;-79
2023/01/11 01:28:57;;;;;;;1.98;0.90;;;;;;;-148.88;100.00;75846.28;5036517;28;20424;-78
2023/01/11 01:31:22;;;;;;;2.17;0.60;;;;;;;-148.88;100.00;75852.38;5036090;28;20018;-78
2023/01/11 01:33:48;;;;;;;2.50;0.82;;;;;;;-148.88;100.00;75854.41;5036810;28;20104;-78
2023/01/11 01:36:13;;;;;;;2.33;0.93;;;;;;;-148.88;100.00;75848.31;5060332;22;20057;-85
2023/01/11 01:38:38;;;;;;;2.70;0.90;;;;;;;-148.88;100.00;75842.22;5033889;28;20037;-85
2023/01/11 01:41:03;;;;;;;4.65;0.90;;;;;;;-148.88;100.00;75842.22;5034250;28;20381;-85
2023/01/11 01:43:44;;;;;;;3.35;0.57;;;;;;;-148.88;100.00;75842.22;5033803;28;20516;-85
2023/01/11 01:46:09;;;;;;;1.95;0.70;;;;;;;-148.88;100.00;75830.03;5016302;28;20116;-85
2023/01/11 01:48:36;;;;;;;2.20;0.80;;;;;;;-148.88;100.00;75821.91;5015943;28;20056;-85
2023/01/11 01:51:04;;;;;;;1.30;1.00;;;;;;;-148.88;100.00;75834.09;5033750;28;20059;-85
2023/01/11 01:53:42;;;;;;;5.53;1.38;;;;;;;-148.88;100.00;75821.91;5015994;28;20564;-85
2023/01/11 01:56:12;;;;;;;1.17;0.57;;;;;;;-148.88;100.00;75813.78;5016783;28;20025;-86
2023/01/11 01:58:44;;;;;;;1.92;0.60;;;;;;;-148.88;100.00;75817.84;5016708;28;20053;-85
2023/01/11 02:02:12;;;;;;;1.95;0.70;;;;;;;-148.88;100.00;75805.66;5015826;28;20030;-84
2023/01/11 02:04:12;;;;;;;2.17;0.68;;;;;;;-148.88;100.00;75805.66;5025019;28;20041;-85
2023/01/11 02:06:38;;;;;;;1.08;0.55;;;;;;;-148.88;100.00;75803.63;5033727;28;20029;-85
2023/01/11 02:09:13;;;;;;;2.03;0.82;;;;;;;-148.88;100.00;75809.72;5033311;28;20025;-85
2023/01/11 02:11:42;;;;;;;1.90;0.70;;;;;;;-148.88;100.00;75805.66;5015834;28;20028;-86
2023/01/11 02:14:13;;;;;;;1.80;0.80;;;;;;;-148.88;100.00;75805.66;5015846;28;20414;-85
2023/01/11 02:16:39;;;;;;;2.90;0.98;;;;;;;-148.88;100.00;75797.53;5033291;28;20021;-84
2023/01/11 02:19:08;;;;;;;1.77;0.90;;;;;;;-148.88;100.00;75783.31;5015458;28;20052;-85
2023/01/11 02:21:40;;;;;;;3.97;1.67;;;;;;;-148.88;100.00;75773.16;5015711;28;20099;-86
2023/01/11 02:24:40;;;;;;;3.65;1.15;;;;;;;-148.88;100.00;75775.19;5033289;28;20116;-86
2023/01/11 02:27:27;;;;;;;1.88;0.70;;;;;;;-148.88;100.00;75775.19;5001774;28;20037;-86
2023/01/11 02:30:18;;;;;;;1.33;0.77;;;;;;;-148.88;100.00;75765.03;5033241;28;20489;-86
2023/01/11 02:32:57;;;;;;;1.58;0.80;;;;;;;-148.88;100.00;75748.78;5006302;28;20116;-86
2023/01/11 02:35:32;;;;;;;1.67;0.80;;;;;;;-148.88;100.00;75765.03;5033190;28;20397;-85
2023/01/11 02:38:26;;;;;;;2.05;0.90;;;;;;;-148.88;100.00;75763.00;5015465;28;20128;-85
2023/01/11 02:41:15;;;;;;;1.40;0.80;;;;;;;-148.88;100.00;75760.97;5033284;28;20108;-84
2023/01/11 02:46:43;;;;;;;2.35;1.02;;;;;;;-148.88;100.00;75763.00;5033229;28;20036;-86
2023/01/11 02:49:20;;;;;;;2.45;0.68;;;;;;;-148.88;100.00;75760.97;5033279;28;20040;-85
2023/01/11 02:51:55;;;;;;;1.90;0.75;;;;;;;-148.88;100.00;75760.97;5033021;28;20026;-86
2023/01/11 02:54:22;;;;;;;1.50;0.65;;;;;;;-148.88;100.00;75744.72;5015516;28;20025;-86
2023/01/11 02:56:51;;;;;;;1.80;0.60;;;;;;;-148.88;100.00;75732.53;5033005;28;20028;-85
2023/01/11 02:59:20;;;;;;;1.77;0.75;;;;;;;-148.88;100.00;75728.47;5032923;28;20104;-85
2023/01/11 03:01:47;;;;;;;1.92;0.90;;;;;;;-148.88;100.00;75722.38;5015313;28;20026;-85
2023/01/11 03:04:32;;;;;;;2.05;1.00;;;;;;;-148.88;100.00;75704.09;5032831;28;20064;-86
2023/01/11 03:07:11;;;;;;;2.47;0.90;;;;;;;-148.88;100.00;75695.97;5033034;28;20057;-85
2023/01/11 03:09:52;;;;;;;1.77;0.80;;;;;;;-148.88;100.00;75704.09;5033045;28;20063;-85
2023/01/11 03:12:55;;;;;;;2.22;0.70;;;;;;;-148.88;100.00;75691.91;5015235;28;20068;-84
2023/01/11 03:15:36;;;;;;;1.83;0.90;;;;;;;-148.88;100.00;75689.88;5015750;28;20029;-85
2023/01/11 03:18:28;;;;;;;2.45;1.08;;;;;;;-148.88;100.00;75683.78;5033035;28;20025;-83
2023/01/11 03:21:30;;;;;;;1.67;0.70;;;;;;;-148.88;100.00;75685.81;5032920;28;20021;-85
2023/01/11 03:24:29;;;;;;;1.77;0.70;;;;;;;-148.88;100.00;75681.75;5032669;28;20604;-85
2023/01/11 03:27:13;;;;;;;1.80;0.60;;;;;;;-148.88;100.00;75673.63;5034262;28;20029;-86
2023/01/11 03:29:42;;;;;;;1.60;0.70;;;;;;;-148.88;100.00;75675.66;5036467;28;20021;-85
2023/01/11 03:32:28;;;;;;;1.45;0.65;;;;;;;-148.88;100.00;75689.88;5037412;28;20030;-86
2023/01/11 03:35:12;;;;;;;2.17;0.70;;;;;;;-148.88;100.00;75685.81;5017646;28;20029;-86
2023/01/11 03:37:46;;;;;;;2.75;0.80;;;;;;;-148.88;100.00;75691.91;5019326;28;20075;-86
2023/01/11 03:40:24;;;;;;;1.92;0.75;;;;;;;-148.88;100.00;75677.69;5019365;28;20494;-85
2023/01/11 03:43:10;;;;;;;1.50;0.80;;;;;;;-148.88;100.00;75681.75;5037902;28;20487;-85
2023/01/11 03:45:45;;;;;;;1.13;0.50;;;;;;;-148.88;100.00;75681.75;5019127;28;20017;-87
2023/01/11 03:48:15;;;;;;;1.83;0.60;;;;;;;-148.88;100.00;75671.59;5036513;28;20025;-86
2023/01/11 03:50:42;;;;;;;2.40;0.80;;;;;;;-148.88;100.00;75665.50;5037116;28;20029;-87
2023/01/11 03:53:09;;;;;;;1.05;0.40;;;;;;;-148.88;100.00;75659.41;5036628;28;20056;-85
2023/01/11 03:55:39;;;;;;;1.23;0.45;;;;;;;-148.88;100.00;75647.22;5035942;28;20025;-86
2023/01/11 03:58:05;;;;;;;0.80;0.40;;;;;;;-148.88;100.00;75657.38;5036525;28;20486;-87
2023/01/11 04:00:31;;;;;;;1.13;0.50;;;;;;;-148.88;100.00;75647.22;5036297;28;20452;-86
2023/01/11 04:02:59;;;;;;;2.08;0.50;;;;;;;-148.88;100.00;75661.44;5018185;28;20056;-85
2023/01/11 04:05:25;;;;;;;0.85;0.55;;;;;;;-148.88;100.00;75659.41;5018293;28;20034;-85
2023/01/11 04:07:51;;;;;;;2.30;0.50;;;;;;;-148.88;100.00;75659.41;5019120;28;20021;-86
2023/01/11 04:10:16;;;;;;;1.58;0.55;;;;;;;-148.88;100.00;75669.56;5018320;28;20112;-86
2023/01/11 04:12:45;;;;;;;0.88;0.57;;;;;;;-148.88;100.00;75669.56;5017827;28;20112;-86
2023/01/11 04:15:12;;;;;;;1.95;0.60;;;;;;;-148.88;100.00;75665.50;5035765;28;20025;-85
2023/01/11 04:17:37;;;;;;;0.98;0.60;;;;;;;-148.88;100.00;75671.59;5017571;28;20037;-86
2023/01/11 04:20:02;;;;;;;2.00;0.60;;;;;;;-148.88;100.00;75671.59;5017719;28;20117;-85
2023/01/11 04:22:28;;;;;;;1.00;0.43;;;;;;;-148.88;100.00;75657.38;5035932;28;20485;-85
2023/01/11 04:24:53;;;;;;;0.65;0.35;;;;;;;-148.88;100.00;75663.47;5018403;28;20116;-85
2023/01/11 04:27:18;;;;;;;0.68;0.40;;;;;;;-148.88;100.00;75653.31;5035603;28;20029;-85
2023/01/11 04:29:44;;;;;;;3.40;0.50;;;;;;;-148.88;100.00;75659.41;5035424;28;20024;-84
2023/01/11 04:32:09;;;;;;;0.90;0.57;;;;;;;-148.88;100.00;75651.28;5035771;28;20021;-85
2023/01/11 04:34:34;;;;;;;2.25;0.50;;;;;;;-148.88;100.00;75653.31;5017540;28;20033;-86
2023/01/11 04:36:59;;;;;;;0.75;0.40;;;;;;;-148.88;100.00;75659.41;5017447;28;20099;-86
2023/01/11 04:39:25;;;;;;;1.05;0.55;;;;;;;-148.88;100.00;75651.28;5034950;28;20025;-85
2023/01/11 04:44:40;;;;;;;0.52;0.30;;;;;;;-148.88;100.00;75639.09;5035389;28;20040;-86
2023/01/11 04:47:05;;;;;;;0.70;0.30;;;;;;;-148.88;100.00;75645.19;5017271;28;20025;-85
2023/01/11 04:49:30;;;;;;;1.48;0.40;;;;;;;-148.88;100.00;75649.25;5035060;28;20029;-86
2023/01/11 04:51:56;;;;;;;1.80;0.52;;;;;;;-148.88;100.00;75643.16;5034967;28;20034;-86
2023/01/11 04:54:21;;;;;;;1.23;0.45;;;;;;;-148.88;100.00;75645.19;5035098;28;20104;-85
2023/01/11 04:56:46;;;;;;;1.02;0.50;;;;;;;-148.88;100.00;75637.06;5035321;28;20036;-85
2023/01/11 04:59:12;;;;;;;0.88;0.50;;;;;;;-148.88;100.00;75639.09;5035168;28;20028;-85
2023/01/11 05:01:37;;;;;;;2.90;0.57;;;;;;;-148.88;100.00;75643.16;5034533;28;20025;-84
2023/01/11 05:04:03;;;;;;;0.88;0.50;;;;;;;-148.88;100.00;75633.00;5034611;28;20441;-85
2023/01/11 05:06:28;;;;;;;0.77;0.40;;;;;;;-148.88;100.00;75626.91;5034715;28;20028;-84
2023/01/11 05:08:53;;;;;;;2.00;0.50;;;;;;;-148.88;100.00;75610.66;5035283;28;20401;-85
2023/01/11 05:11:19;;;;;;;0.52;0.30;;;;;;;-148.88;100.00;75614.72;5034489;28;20040;-85
2023/01/11 05:13:44;;;;;;;0.68;0.30;;;;;;;-148.88;100.00;75614.72;5034348;28;20017;-84
2023/01/11 05:16:11;;;;;;;0.80;0.50;;;;;;;-148.88;100.00;75606.59;5034304;28;20108;-84
2023/01/11 05:18:44;;;;;;;1.25;0.50;;;;;;;-148.88;100.00;75610.66;5034418;28;20063;-84
2023/01/11 05:21:12;;;;;;;1.45;0.32;;;;;;;-148.88;100.00;75610.66;5034320;28;20051;-85
2023/01/11 05:23:38;;;;;;;2.53;0.52;;;;;;;-148.88;100.00;75614.72;5034344;28;20452;-85
2023/01/11 05:26:10;;;;;;;1.15;0.55;;;;;;;-148.88;100.00;75620.81;5034289;28;20032;-84
2023/01/11 05:28:35;;;;;;;1.83;0.70;;;;;;;-148.88;100.00;75620.81;5034294;28;20498;-85
2023/01/11 05:31:01;;;;;;;0.70;0.40;;;;;;;-148.88;100.00;75620.81;5034412;28;20048;-85
2023/01/11 05:33:26;;;;;;;0.98;0.45;;;;;;;-148.88;100.00;75614.72;5034378;28;20025;-85
2023/01/11 05:35:59;;;;;;;0.52;0.40;;;;;;;-148.88;100.00;75612.69;5016012;28;20555;-84
2023/01/11 05:38:25;;;;;;;1.75;0.45;;;;;;;-148.88;100.00;75610.66;5016087;28;20027;-84
2023/01/11 05:41:33;;;;;;;0.98;0.57;;;;;;;-148.88;100.00;75604.56;5033707;28;20506;-86
2023/01/11 05:46:59;;;;;;;1.20;0.52;;;;;;;-148.88;100.00;75608.63;5034597;28;20036;-85
2023/01/11 05:49:24;;;;;;;0.68;0.43;;;;;;;-148.88;100.00;75602.53;5034235;28;20033;-84
2023/01/11 05:51:50;;;;;;;1.52;0.90;;;;;;;-148.88;100.00;75600.50;5033478;28;20025;-84
2023/01/11 05:54:15;;;;;;;2.35;0.65;;;;;;;-148.88;100.00;75596.44;5033920;28;20103;-84
2023/01/11 05:56:41;;;;;;;2.97;0.73;;;;;;;-148.88;100.00;75594.44;5016737;28;20132;-88
2023/01/11 05:59:07;;;;;;;0.90;0.70;;;;;;;-148.88;100.00;75582.22;5033832;28;20025;-86
2023/01/11 06:01:33;;;;;;;0.85;0.60;;;;;;;-148.88;100.00;75588.34;5016460;28;20040;-85
2023/01/11 06:03:58;;;;;;;1.38;0.80;;;;;;;-148.88;100.00;75582.22;5033653;28;20033;-87
2023/01/11 06:06:23;;;;;;;0.93;0.55;;;;;;;-148.88;100.00;75584.25;5033699;28;20029;-86
2023/01/11 06:08:49;;;;;;;1.95;1.48;;;;;;;-148.88;100.00;75582.22;5034138;28;20032;-87
2023/01/11 06:11:14;;;;;;;1.45;0.73;;;;;;;-148.88;100.00;75578.19;5016390;28;20549;-89
2023/01/11 06:13:40;;;;;;;1.60;1.20;;;;;;;-148.88;100.00;75578.19;5015937;28;20025;-90
2023/01/11 06:16:11;;;;;;;1.23;0.70;;;;;;;-148.88;100.00;75574.13;5015967;28;20033;-88
2023/01/11 06:18:42;;;;;;;2.00;1.00;;;;;;;-148.88;100.00;75584.25;5015806;28;20021;-89
2023/01/11 06:21:09;;;;;;;1.42;0.85;;;;;;;-148.88;100.00;75572.09;5015908;28;20053;-88
2023/01/11 06:23:37;;;;;;;1.17;0.85;;;;;;;-148.88;100.00;75566.00;5016142;28;20017;-89
2023/01/11 06:26:05;;;;;;;1.80;1.02;;;;;;;-148.88;100.00;75566.00;5015554;28;20056;-89
2023/01/11 06:28:31;;;;;;;2.67;1.17;;;;;;;-148.88;100.00;75563.97;5015702;28;20025;-90
2023/01/11 06:30:57;;;;;;;1.67;0.90;;;;;;;-148.88;100.00;75576.13;5033334;28;20033;-89
2023/01/11 06:33:24;;;;;;;1.88;1.10;;;;;;;-148.88;100.00;75553.81;5033687;28;20350;-89
2023/01/11 06:35:50;;;;;;;1.90;1.60;;;;;;;-148.88;100.00;75559.91;5033375;28;20476;-89
2023/01/11 06:38:17;;;;;;;2.45;1.65;;;;;;;-148.88;100.00;75559.91;5015603;28;20028;-90
2023/01/11 06:40:55;;;;;;;1.70;1.05;;;;;;;-148.88;100.00;75559.91;5015799;28;20124;-89
2023/01/11 06:43:22;;;;;;;2.78;1.70;;;;;;;-148.88;100.00;75557.88;5016192;28;20034;-89
2023/01/11 06:45:48;;;;;;;2.08;1.20;;;;;;;-148.88;100.00;75561.94;5015463;28;20496;-89
2023/01/11 06:48:13;;;;;;;2.20;1.80;;;;;;;-148.88;100.00;75547.72;5033535;28;20037;-89
2023/01/11 06:50:39;;;;;;;2.45;1.40;;;;;;;-148.88;100.00;75553.81;5015474;28;20439;-88
2023/01/11 06:53:05;;;;;;;2.47;1.25;;;;;;;-148.88;100.00;75553.81;5033046;28;20026;-89
2023/01/11 06:55:30;;;;;;;2.00;1.30;;;;;;;-148.88;100.00;75537.56;5015373;28;20090;-90
2023/01/11 06:57:56;;;;;;;2.17;1.30;;;;;;;-148.88;100.00;75553.81;5015328;28;20112;-89
2023/01/11 07:00:22;;;;;;;3.25;1.35;;;;;;;-148.88;100.00;75539.59;5015693;28;20029;-89
2023/01/11 07:02:48;;;;;;;2.70;2.33;;;;;;;-148.88;100.00;75545.69;5018703;28;20033;-89
2023/01/11 07:05:14;;;;;;;3.53;1.77;;;;;;;-148.88;100.00;75541.63;5019258;28;20021;-89
2023/01/11 07:07:41;;;;;;;2.53;1.58;;;;;;;-148.88;100.00;75545.69;5019375;28;20025;-88
2023/01/11 07:10:08;;;;;;;2.17;1.35;;;;;;;-148.88;100.00;75535.53;5037018;28;20111;-89
2023/01/11 07:12:34;;;;;;;2.97;1.55;;;;;;;-148.88;100.00;75535.53;5019248;28;20028;-89
2023/01/11 07:15:03;;;;;;;3.53;2.35;;;;;;;-148.88;100.00;75529.44;5038786;28;20097;-90
2023/01/11 07:17:28;;;;;;;3.00;2.08;;;;;;;-148.88;100.00;75531.47;5020046;28;20049;-90
2023/01/11 07:19:53;;;;;;;2.75;1.52;;;;;;;-148.88;100.00;75541.63;5019231;28;20033;-90
2023/01/11 07:22:21;;;;;;;3.60;1.50;;;;;;;-148.88;100.00;75529.44;5018954;28;20513;-90
2023/01/11 07:24:46;;;;;;;2.58;2.35;;;;;;;-148.88;100.00;75525.38;5019175;28;20387;-90
2023/01/11 07:27:12;;;;;;;2.55;1.60;;;;;;;-148.88;100.00;75537.56;5019081;28;20075;-90
2023/01/11 07:29:37;;;;;;;1.90;1.10;;;;;;;-148.88;100.00;75525.38;5018833;28;20038;-89
2023/01/11 07:32:03;;;;;;;2.58;1.33;;;;;;;-148.88;100.00;75523.34;5019040;28;20477;-89
2023/01/11 07:34:29;;;;;;;2.50;1.52;;;;;;;-148.88;100.00;75525.38;5019161;28;20021;-90
2023/01/11 07:36:54;;;;;;;2.53;1.45;;;;;;;-148.88;100.00;75521.31;5018528;28;20060;-89
2023/01/11 07:39:19;;;;;;;2.10;1.48;;;;;;;-148.88;100.00;75519.28;5018854;28;20022;-90
2023/01/11 07:44:28;;;;;;;;;;;;;;;-148.88;100.00;75521.31;5039590;28;20069;-88
2023/01/11 07:46:54;;;;;;;2.20;1.42;;;;;;;-148.88;100.00;75523.34;5018667;28;19909;-88
2023/01/11 07:49:19;;;;;;;2.63;1.92;;;;;;;-148.88;100.00;75515.22;5020035;28;20026;-88
2023/01/11 07:51:44;;;;;;;3.83;1.40;;;;;;;-148.88;100.00;75519.28;5036085;28;20036;-89
2023/01/11 07:54:09;;;;;;;2.00;1.30;;;;;;;-148.88;100.00;75521.31;5018232;28;20181;-88
2023/01/11 07:56:35;;;;;;;2.33;1.50;;;;;;;-148.88;100.00;75523.34;5018209;28;20017;-88
2023/01/11 07:59:00;;;;;;;2.30;2.10;;;;;;;-148.88;100.00;75533.50;5036070;28;20040;-88
2023/01/11 08:01:25;;;;;;;2.58;2.38;;;;;;;-148.88;100.00;75525.38;5036014;28;20025;-89
2023/01/11 08:03:51;;;;;;;3.00;1.45;;;;;;;-148.88;100.00;75537.56;5036166;28;20025;-88
2023/01/11 08:06:16;;;;;;;2.50;1.58;;;;;;;-148.88;100.00;75533.50;5036040;28;20497;-89
2023/01/11 08:08:45;;;;;;;3.08;2.50;;;;;;;-148.88;100.00;75537.56;5036049;28;20026;-89
2023/01/11 08:16:38;;;;;;;2.50;1.35;;;;;;;-148.88;100.00;75549.75;5036263;28;20044;-88
2023/01/11 08:19:04;;;;;;;2.65;1.48;;;;;;;-148.88;100.00;75541.63;5035763;28;20394;-88
2023/01/11 08:21:30;;;;;;;2.85;1.45;;;;;;;-148.88;100.00;75545.69;5035542;28;20048;-88
2023/01/11 08:23:57;;;;;;;3.08;2.78;;;;;;;-148.88;100.00;75551.78;5035756;28;20112;-89
2023/01/11 08:26:26;;;;;;;3.22;2.92;;;;;;;-148.88;100.00;75539.59;5035141;28;20104;-88
2023/01/11 08:29:02;;;;;;;4.40;1.75;;;;;;;-148.88;100.00;75549.75;5036670;28;20029;-88
2023/01/11 08:31:29;;;;;;;3.72;1.80;;;;;;;-148.88;100.00;75557.88;5018597;28;20021;-88
2023/01/11 08:33:54;;;;;;;2.50;2.13;;;;;;;-148.88;100.00;75559.91;5035148;28;20026;-88
2023/01/11 08:36:19;;;;;;;3.00;2.33;;;;;;;-148.88;100.00;75549.75;5017366;28;20041;-87
2023/01/11 08:38:45;;;;;;;2.78;1.48;;;;;;;-148.88;100.00;75547.72;5035290;28;20029;-88
2023/01/11 08:41:10;;;;;;;2.58;1.60;;;;;;;-148.88;100.00;75549.75;5035277;28;20076;-88
2023/01/11 08:43:40;;;;;;;3.30;2.40;;;;;;;-148.88;100.00;75553.81;5017383;28;20053;-86
2023/01/11 08:46:06;;;;;;;3.42;2.47;;;;;;;-148.88;100.00;75549.75;5016994;28;20026;-87
2023/01/11 08:48:31;;;;;;;3.13;2.50;;;;;;;-148.88;100.00;75537.56;5017596;28;20029;-88
2023/01/11 08:50:57;;;;;;;2.47;1.30;;;;;;;-148.88;100.00;75545.69;5017040;28;20021;-88
2023/01/11 08:53:22;;;;;;;2.08;1.63;;;;;;;-148.88;100.00;75557.88;5017209;28;20405;-89
2023/01/11 08:55:48;;;;;;;2.78;2.08;;;;;;;-148.88;100.00;75545.69;5034672;28;20049;-89
2023/01/11 08:58:14;;;;;;;3.75;2.90;;;;;;;-148.88;100.00;75557.88;5034708;28;20025;-88
2023/01/11 09:00:39;;;;;;;4.07;3.55;;;;;;;-148.88;100.00;75553.81;5034708;28;20025;-88
2023/01/11 09:03:04;;;;;;;3.47;2.42;;;;;;;-148.88;100.00;75549.75;5017147;28;20398;-89
2023/01/11 09:05:30;;;;;;;6.85;6.15;;;;;;;-148.88;100.00;75539.59;5034713;28;20029;-87
2023/01/11 09:07:56;;;;;;;8.40;7.47;;;;;;;-148.88;100.00;75543.66;5034727;28;20025;-87
2023/01/11 09:10:25;;;;;;;5.93;3.70;;;;;;;-148.88;100.00;75549.75;5016955;28;20123;-88
2023/01/11 09:12:51;;;;;;;7.88;4.53;;;;;;;-148.88;100.00;75547.72;5034561;28;20121;-89
2023/01/11 09:15:16;;;;;;;6.88;3.97;;;;;;;-148.88;100.00;75537.56;5034459;28;20056;-87
2023/01/11 09:17:42;;;;;;;7.97;7.18;;;;;;;-148.88;100.00;75545.69;5034348;28;20036;-88
2023/01/11 09:20:08;;;;;;;9.40;4.63;;;;;;;-148.88;100.00;75547.72;5016829;28;20474;-89
2023/01/11 09:22:33;;;;;;;9.23;5.15;;;;;;;-148.88;100.00;75539.59;5016503;28;20033;-89
2023/01/11 09:24:59;;;;;;;7.22;4.28;;;;;;;-148.88;100.00;75533.50;5034000;28;20025;-88
2023/01/11 09:27:25;;;;;;;12.05;9.70;;;;;;;-148.88;100.00;75547.72;5017216;28;20025;-88
2023/01/11 09:29:50;;;;;;;11.98;10.15;;;;;;;-148.88;100.00;75545.69;5016698;28;20021;-89
2023/01/11 09:32:16;;;;;;;12.50;10.23;;;;;;;-148.88;100.00;75551.78;5016686;28;20029;-87
2023/01/11 09:34:42;;;;;;;9.88;6.07;;;;;;;-148.88;100.00;75551.78;5034130;28;20021;-88
2023/01/11 09:37:07;;;;;;;15.70;12.40;;;;;;;-148.88;100.00;75557.88;5016607;28;20057;-88
2023/01/11 09:39:33;;;;;;;12.90;6.82;;;;;;;-148.88;100.00;75561.94;5016962;28;20449;-87
2023/01/11 09:42:18;;;;;;;11.82;6.55;;;;;;;-148.88;100.00;75561.94;5034033;28;20026;-89
2023/01/11 09:44:49;;;;;;;16.70;13.80;;;;;;;-148.88;100.00;75561.94;5034009;28;20525;-87
2023/01/11 09:47:41;;;;;;;17.38;13.52;;;;;;;-148.88;100.00;75561.94;5016993;28;20037;-88
2023/01/11 09:50:22;;;;;;;19.55;14.90;;;;;;;-148.88;100.00;75557.88;5016477;28;20049;-88
2023/01/11 09:52:57;;;;;;;18.70;14.63;;;;;;;-148.88;100.00;75553.81;5033745;28;20021;-87
2023/01/11 09:55:48;;;;;;;18.55;14.07;;;;;;;-148.88;100.00;75553.81;5033488;28;20026;-89
2023/01/11 09:58:41;;;;;;;15.27;8.18;;;;;;;-148.88;100.00;75549.75;5006553;28;20072;-87
2023/01/11 10:01:28;;;;;;;20.38;15.10;;;;;;;-148.88;100.00;75551.78;5016651;28;20474;-87
2023/01/11 10:04:27;;;;;;;17.75;14.52;;;;;;;-148.88;100.00;75547.72;5016660;28;20025;-87
2023/01/11 10:07:30;;;;;;;17.98;8.32;;;;;;;-148.88;100.00;75543.66;5015849;28;20116;-88
2023/01/11 10:10:20;;;;;;;15.23;8.47;;;;;;;-148.88;100.00;75533.50;5016679;28;20021;-89
2023/01/11 10:13:07;;;;;;;19.80;14.65;;;;;;;-148.88;100.00;75541.63;5015758;28;20013;-87
2023/01/11 10:15:44;;;;;;;19.58;14.73;;;;;;;-148.88;100.00;75525.38;5033194;28;20047;-88
2023/01/11 10:18:30;;;;;;;19.20;8.90;;;;;;;-148.88;100.00;75533.50;5016284;28;20382;-88
2023/01/11 10:21:08;;;;;;;15.05;7.82;;;;;;;-148.88;100.00;75533.50;5033288;28;20031;-89
2023/01/11 10:23:53;;;;;;;19.35;14.45;;;;;;;-148.88;100.00;75529.44;5016668;28;20061;-90
2023/01/11 10:26:27;;;;;;;19.15;8.27;;;;;;;-148.88;100.00;75533.50;5016493;28;20033;-88
2023/01/11 10:31:58;;;;;;;17.85;7.55;;;;;;;-148.88;100.00;75545.69;5033503;28;20028;-88
2023/01/11 10:37:46;;;;;;;16.88;12.48;;;;;;;-148.88;100.00;75537.56;5013154;28;20121;-89
2023/01/11 10:43:08;;;;;;;13.80;7.45;;;;;;;-148.88;100.00;75537.56;5033303;28;20034;-89
2023/01/11 10:45:52;;;;;;;15.88;11.20;;;;;;;-148.88;100.00;75549.75;5015804;28;20032;-90
2023/01/11 10:48:22;;;;;;;;;;;;;;;-148.88;100.00;75551.78;5033902;28;20021;-89
2023/01/11 10:50:58;;;;;;;14.52;10.07;;;;;;;-148.88;100.00;75555.84;5016021;28;19909;-87
2023/01/11 10:53:30;;;;;;;18.17;10.55;;;;;;;-148.88;100.00;75559.91;5015932;28;20492;-88
2023/01/11 10:56:19;;;;;;;15.73;9.55;;;;;;;-148.88;100.00;75543.66;5015198;28;20030;-89
2023/01/11 10:58:47;;;;;;;17.50;6.22;;;;;;;-148.88;100.00;75539.59;5032250;28;20482;-89
2023/01/11 11:01:16;;;;;;;14.30;5.97;;;;;;;-148.88;100.00;75541.63;5032759;28;20069;-89
2023/01/11 11:03:59;;;;;;;14.75;5.93;;;;;;;-148.88;100.00;75541.63;5015195;28;20108;-90
2023/01/11 11:06:51;;;;;;;14.15;9.10;;;;;;;-148.88;100.00;75545.69;5015961;28;20504;-88
2023/01/11 11:09:37;;;;;;;14.95;8.85;;;;;;;-148.88;100.00;75557.88;5015696;28;20025;-89
2023/01/11 11:12:23;;;;;;;12.32;8.25;;;;;;;-148.88;100.00;75557.88;5015153;28;20473;-89
2023/01/11 11:15:03;;;;;;;18.50;9.50;;;;;;;-148.88;100.00;75555.84;5032825;28;20025;-88
2023/01/11 11:17:34;;;;;;;12.05;5.90;;;;;;;-148.88;100.00;75557.88;5033167;28;20033;-90
2023/01/11 11:19:59;;;;;;;16.17;9.43;;;;;;;-148.88;100.00;75549.75;5015532;28;20474;-89
2023/01/11 11:22:25;;;;;;;16.52;9.15;;;;;;;-148.88;100.00;75553.81;5014899;28;20052;-90
2023/01/11 11:25:04;;;;;;;14.45;8.82;;;;;;;-148.88;100.00;75551.78;5014853;28;20080;-88
2023/01/11 11:27:59;;;;;;;15.50;8.85;;;;;;;-148.88;100.00;75566.00;5014871;28;20023;-88
2023/01/11 11:30:32;;;;;;;16.35;8.32;;;;;;;-148.88;100.00;75563.97;5009674;28;20058;-89
2023/01/11 11:33:05;;;;;;;16.38;5.35;;;;;;;-148.88;100.00;75566.00;5016168;28;20035;-89
2023/01/11 11:35:35;;;;;;;15.50;6.15;;;;;;;-148.88;100.00;75559.91;5032299;28;20485;-89
2023/01/11 11:38:01;;;;;;;17.58;7.88;;;;;;;-148.88;100.00;75563.97;5015698;28;20022;-89
2023/01/11 11:40:35;;;;;;;14.68;7.40;;;;;;;-148.88;100.00;75561.94;5015615;28;20033;-88
2023/01/11 11:43:14;;;;;;;17.25;8.02;;;;;;;-148.88;100.00;75574.13;5014993;28;20037;-90
2023/01/11 11:45:50;;;;;;;16.10;7.72;;;;;;;-148.88;100.00;75582.22;5032792;28;20030;-90
2023/01/11 11:48:18;;;;;;;15.15;4.85;;;;;;;-148.88;100.00;75594.44;5015252;28;20025;-88
2023/01/11 11:50:45;;;;;;;13.68;6.60;;;;;;;-148.88;100.00;75590.34;5018383;28;20405;-89
2023/01/11 11:53:22;;;;;;;16.50;6.70;;;;;;;-148.88;100.00;75596.44;5018320;28;20025;-89
2023/01/11 11:55:50;;;;;;;15.50;5.13;;;;;;;-148.88;100.00;75594.44;5036217;28;20033;-89